sensor_id;sensor_type;location;lat;lon;timestamp;P1;durP1;ratioP1;P2;durP2;ratioP2
4696;SDS011;2362;50.780;0.292;2023-03-15T00:02:03;24.17;;;2.55;;
4696;SDS011;2362;50.780;0.292;2023-03-15T00:04:29;9.65;;;1.88;;
4696;SDS011;2362;50.780;0.292;2023-03-15T00:06:58;17.30;;;2.30;;
4696;SDS011;2362;50.780;0.292;2023-03-15T00:09:24;12.70;;;2.25;;
4696;SDS011;2362;50.780;0.292;2023-03-15T00:11:53;12.95;;;1.75;;
4696;SDS011;2362;50.780;0.292;2023-03-15T00:14:18;14.10;;;2.00;;
4696;SDS011;2362;50.780;0.292;2023-03-15T00:16:45;14.38;;;1.95;;
4696;SDS011;2362;50.780;0.292;2023-03-15T00:19:11;14.55;;;1.27;;
4696;SDS011;2362;50.780;0.292;2023-03-15T00:21:36;20.92;;;1.30;;
4696;SDS011;2362;50.780;0.292;2023-03-15T00:24:03;14.32;;;1.58;;
4696;SDS011;2362;50.780;0.292;2023-03-15T00:26:29;15.38;;;1.70;;
4696;SDS011;2362;50.780;0.292;2023-03-15T00:28:55;5.88;;;1.17;;
4696;SDS011;2362;50.780;0.292;2023-03-15T00:31:22;20.80;;;1.35;;
4696;SDS011;2362;50.780;0.292;2023-03-15T00:33:49;8.20;;;1.88;;
4696;SDS011;2362;50.780;0.292;2023-03-15T00:36:18;13.70;;;2.15;;
4696;SDS011;2362;50.780;0.292;2023-03-15T00:38:47;8.85;;;2.45;;
4696;SDS011;2362;50.780;0.292;2023-03-15T00:41:15;7.88;;;0.98;;
4696;SDS011;2362;50.780;0.292;2023-03-15T00:43:42;15.80;;;3.00;;
4696;SDS011;2362;50.780;0.292;2023-03-15T00:46:08;4.38;;;0.80;;
4696;SDS011;2362;50.780;0.292;2023-03-15T00:48:34;14.07;;;1.30;;
4696;SDS011;2362;50.780;0.292;2023-03-15T00:51:04;5.78;;;0.90;;
4696;SDS011;2362;50.780;0.292;2023-03-15T00:53:30;9.77;;;1.08;;
4696;SDS011;2362;50.780;0.292;2023-03-15T00:55:56;5.93;;;1.02;;
4696;SDS011;2362;50.780;0.292;2023-03-15T00:58:22;5.65;;;1.08;;
4696;SDS011;2362;50.780;0.292;2023-03-15T01:00:48;6.97;;;1.00;;
4696;SDS011;2362;50.780;0.292;2023-03-15T01:03:13;8.15;;;1.23;;
4696;SDS011;2362;50.780;0.292;2023-03-15T01:05:39;11.13;;;1.42;;
4696;SDS011;2362;50.780;0.292;2023-03-15T01:08:05;14.10;;;1.20;;
4696;SDS011;2362;50.780;0.292;2023-03-15T01:10:33;10.18;;;1.08;;
4696;SDS011;2362;50.780;0.292;2023-03-15T01:12:59;9.00;;;1.27;;
4696;SDS011;2362;50.780;0.292;2023-03-15T01:15:25;7.32;;;1.15;;
4696;SDS011;2362;50.780;0.292;2023-03-15T01:17:51;6.90;;;1.15;;
4696;SDS011;2362;50.780;0.292;2023-03-15T01:20:16;8.48;;;1.20;;
4696;SDS011;2362;50.780;0.292;2023-03-15T01:22:42;5.40;;;1.48;;
4696;SDS011;2362;50.780;0.292;2023-03-15T01:25:08;11.13;;;1.15;;
4696;SDS011;2362;50.780;0.292;2023-03-15T01:27:34;7.63;;;0.90;;
4696;SDS011;2362;50.780;0.292;2023-03-15T01:30:00;13.25;;;1.15;;
4696;SDS011;2362;50.780;0.292;2023-03-15T01:32:26;15.07;;;1.67;;
4696;SDS011;2362;50.780;0.292;2023-03-15T01:34:55;14.25;;;1.08;;
4696;SDS011;2362;50.780;0.292;2023-03-15T01:37:21;9.75;;;1.20;;
4696;SDS011;2362;50.780;0.292;2023-03-15T01:39:49;8.30;;;1.13;;
4696;SDS011;2362;50.780;0.292;2023-03-15T01:42:15;6.03;;;1.20;;
4696;SDS011;2362;50.780;0.292;2023-03-15T01:47:12;8.73;;;1.83;;
4696;SDS011;2362;50.780;0.292;2023-03-15T01:49:38;10.73;;;1.52;;
4696;SDS011;2362;50.780;0.292;2023-03-15T01:52:05;5.72;;;1.13;;
4696;SDS011;2362;50.780;0.292;2023-03-15T01:54:44;12.60;;;1.27;;
4696;SDS011;2362;50.780;0.292;2023-03-15T01:57:22;8.02;;;1.20;;
4696;SDS011;2362;50.780;0.292;2023-03-15T02:00:02;6.10;;;1.08;;
4696;SDS011;2362;50.780;0.292;2023-03-15T02:02:36;13.63;;;2.67;;
4696;SDS011;2362;50.780;0.292;2023-03-15T02:05:10;10.55;;;2.17;;
4696;SDS011;2362;50.780;0.292;2023-03-15T02:07:41;6.50;;;1.05;;
4696;SDS011;2362;50.780;0.292;2023-03-15T02:10:14;4.65;;;1.23;;
4696;SDS011;2362;50.780;0.292;2023-03-15T02:12:49;10.70;;;1.42;;
4696;SDS011;2362;50.780;0.292;2023-03-15T02:15:16;7.35;;;1.33;;
4696;SDS011;2362;50.780;0.292;2023-03-15T02:17:43;8.75;;;2.05;;
4696;SDS011;2362;50.780;0.292;2023-03-15T02:22:48;5.95;;;1.17;;
4696;SDS011;2362;50.780;0.292;2023-03-15T02:28:27;8.13;;;1.90;;
4696;SDS011;2362;50.780;0.292;2023-03-15T02:30:53;13.68;;;1.15;;
4696;SDS011;2362;50.780;0.292;2023-03-15T02:35:50;21.15;;;2.00;;
4696;SDS011;2362;50.780;0.292;2023-03-15T02:38:16;7.38;;;1.00;;
4696;SDS011;2362;50.780;0.292;2023-03-15T02:40:42;5.30;;;1.08;;
4696;SDS011;2362;50.780;0.292;2023-03-15T02:43:13;11.48;;;1.20;;
4696;SDS011;2362;50.780;0.292;2023-03-15T02:45:43;13.02;;;1.60;;
4696;SDS011;2362;50.780;0.292;2023-03-15T02:48:11;7.78;;;1.48;;
4696;SDS011;2362;50.780;0.292;2023-03-15T02:50:37;9.45;;;1.67;;
4696;SDS011;2362;50.780;0.292;2023-03-15T02:53:03;5.47;;;1.13;;
4696;SDS011;2362;50.780;0.292;2023-03-15T02:55:29;5.28;;;1.10;;
4696;SDS011;2362;50.780;0.292;2023-03-15T02:57:59;6.45;;;1.23;;
4696;SDS011;2362;50.780;0.292;2023-03-15T03:00:27;7.50;;;1.52;;
4696;SDS011;2362;50.780;0.292;2023-03-15T03:02:52;10.63;;;1.20;;
4696;SDS011;2362;50.780;0.292;2023-03-15T03:05:18;5.13;;;1.35;;
4696;SDS011;2362;50.780;0.292;2023-03-15T03:07:44;17.35;;;1.83;;
4696;SDS011;2362;50.780;0.292;2023-03-15T03:10:11;13.90;;;1.40;;
4696;SDS011;2362;50.780;0.292;2023-03-15T03:12:40;12.85;;;1.70;;
4696;SDS011;2362;50.780;0.292;2023-03-15T03:15:06;13.52;;;2.13;;
4696;SDS011;2362;50.780;0.292;2023-03-15T03:17:32;11.10;;;1.83;;
4696;SDS011;2362;50.780;0.292;2023-03-15T03:20:05;14.65;;;2.78;;
4696;SDS011;2362;50.780;0.292;2023-03-15T03:22:33;9.88;;;1.65;;
4696;SDS011;2362;50.780;0.292;2023-03-15T03:24:59;13.27;;;1.60;;
4696;SDS011;2362;50.780;0.292;2023-03-15T03:27:25;9.15;;;1.25;;
4696;SDS011;2362;50.780;0.292;2023-03-15T03:29:51;13.07;;;1.27;;
4696;SDS011;2362;50.780;0.292;2023-03-15T03:32:17;15.50;;;2.10;;
4696;SDS011;2362;50.780;0.292;2023-03-15T03:34:43;15.18;;;2.17;;
4696;SDS011;2362;50.780;0.292;2023-03-15T03:37:13;7.95;;;1.23;;
4696;SDS011;2362;50.780;0.292;2023-03-15T03:39:41;6.63;;;2.13;;
4696;SDS011;2362;50.780;0.292;2023-03-15T03:42:06;7.55;;;1.33;;
4696;SDS011;2362;50.780;0.292;2023-03-15T03:44:32;18.05;;;2.55;;
4696;SDS011;2362;50.780;0.292;2023-03-15T03:46:58;11.55;;;1.20;;
4696;SDS011;2362;50.780;0.292;2023-03-15T03:49:23;9.55;;;1.48;;
4696;SDS011;2362;50.780;0.292;2023-03-15T03:51:49;8.98;;;1.48;;
4696;SDS011;2362;50.780;0.292;2023-03-15T03:54:14;9.82;;;1.30;;
4696;SDS011;2362;50.780;0.292;2023-03-15T03:56:40;4.68;;;1.40;;
4696;SDS011;2362;50.780;0.292;2023-03-15T03:59:06;9.05;;;1.48;;
4696;SDS011;2362;50.780;0.292;2023-03-15T04:01:56;16.10;;;2.95;;
4696;SDS011;2362;50.780;0.292;2023-03-15T04:04:46;15.10;;;1.70;;
4696;SDS011;2362;50.780;0.292;2023-03-15T04:07:15;13.07;;;1.63;;
4696;SDS011;2362;50.780;0.292;2023-03-15T04:09:40;12.25;;;2.53;;
4696;SDS011;2362;50.780;0.292;2023-03-15T04:12:07;15.90;;;2.30;;
4696;SDS011;2362;50.780;0.292;2023-03-15T04:14:32;6.97;;;1.63;;
4696;SDS011;2362;50.780;0.292;2023-03-15T04:16:58;12.18;;;1.58;;
4696;SDS011;2362;50.780;0.292;2023-03-15T04:19:24;8.98;;;3.03;;
4696;SDS011;2362;50.780;0.292;2023-03-15T04:21:51;14.88;;;1.20;;
4696;SDS011;2362;50.780;0.292;2023-03-15T04:24:16;14.70;;;2.70;;
4696;SDS011;2362;50.780;0.292;2023-03-15T04:26:42;6.22;;;1.75;;
4696;SDS011;2362;50.780;0.292;2023-03-15T04:29:08;12.75;;;1.88;;
4696;SDS011;2362;50.780;0.292;2023-03-15T04:31:38;17.40;;;2.10;;
4696;SDS011;2362;50.780;0.292;2023-03-15T04:34:07;10.25;;;1.50;;
4696;SDS011;2362;50.780;0.292;2023-03-15T04:36:33;12.73;;;2.38;;
4696;SDS011;2362;50.780;0.292;2023-03-15T04:38:58;13.90;;;2.50;;
4696;SDS011;2362;50.780;0.292;2023-03-15T04:41:31;10.57;;;2.10;;
4696;SDS011;2362;50.780;0.292;2023-03-15T04:44:04;6.95;;;1.92;;
4696;SDS011;2362;50.780;0.292;2023-03-15T04:46:32;11.85;;;2.00;;
4696;SDS011;2362;50.780;0.292;2023-03-15T04:48:58;18.23;;;2.03;;
4696;SDS011;2362;50.780;0.292;2023-03-15T04:51:24;7.07;;;1.50;;
4696;SDS011;2362;50.780;0.292;2023-03-15T04:53:51;12.90;;;1.85;;
4696;SDS011;2362;50.780;0.292;2023-03-15T04:56:16;4.00;;;1.20;;
4696;SDS011;2362;50.780;0.292;2023-03-15T04:58:42;5.90;;;1.63;;
4696;SDS011;2362;50.780;0.292;2023-03-15T05:01:07;11.95;;;1.70;;
4696;SDS011;2362;50.780;0.292;2023-03-15T05:03:33;9.77;;;1.80;;
4696;SDS011;2362;50.780;0.292;2023-03-15T05:06:02;9.10;;;2.03;;
4696;SDS011;2362;50.780;0.292;2023-03-15T05:08:34;13.27;;;1.67;;
4696;SDS011;2362;50.780;0.292;2023-03-15T05:11:01;12.93;;;1.80;;
4696;SDS011;2362;50.780;0.292;2023-03-15T05:13:27;10.95;;;2.40;;
4696;SDS011;2362;50.780;0.292;2023-03-15T05:15:53;11.90;;;1.65;;
4696;SDS011;2362;50.780;0.292;2023-03-15T05:18:19;16.30;;;2.25;;
4696;SDS011;2362;50.780;0.292;2023-03-15T05:20:46;18.33;;;2.38;;
4696;SDS011;2362;50.780;0.292;2023-03-15T05:23:11;12.18;;;1.92;;
4696;SDS011;2362;50.780;0.292;2023-03-15T05:25:37;9.75;;;2.00;;
4696;SDS011;2362;50.780;0.292;2023-03-15T05:28:03;12.35;;;2.30;;
4696;SDS011;2362;50.780;0.292;2023-03-15T05:30:30;8.00;;;1.90;;
4696;SDS011;2362;50.780;0.292;2023-03-15T05:32:56;6.70;;;1.85;;
4696;SDS011;2362;50.780;0.292;2023-03-15T05:35:21;11.68;;;2.05;;
4696;SDS011;2362;50.780;0.292;2023-03-15T05:37:50;9.23;;;1.88;;
4696;SDS011;2362;50.780;0.292;2023-03-15T05:40:19;6.03;;;2.05;;
4696;SDS011;2362;50.780;0.292;2023-03-15T05:42:45;9.80;;;2.08;;
4696;SDS011;2362;50.780;0.292;2023-03-15T05:45:10;18.00;;;2.63;;
4696;SDS011;2362;50.780;0.292;2023-03-15T05:47:36;4.57;;;1.85;;
4696;SDS011;2362;50.780;0.292;2023-03-15T05:50:02;8.75;;;2.33;;
4696;SDS011;2362;50.780;0.292;2023-03-15T05:52:29;12.02;;;2.13;;
4696;SDS011;2362;50.780;0.292;2023-03-15T05:54:55;11.48;;;2.45;;
4696;SDS011;2362;50.780;0.292;2023-03-15T05:57:21;12.85;;;1.98;;
4696;SDS011;2362;50.780;0.292;2023-03-15T05:59:47;12.00;;;1.83;;
4696;SDS011;2362;50.780;0.292;2023-03-15T06:02:12;16.80;;;2.70;;
4696;SDS011;2362;50.780;0.292;2023-03-15T06:04:38;8.18;;;2.33;;
4696;SDS011;2362;50.780;0.292;2023-03-15T06:07:04;7.93;;;1.95;;
4696;SDS011;2362;50.780;0.292;2023-03-15T06:09:29;11.95;;;2.55;;
4696;SDS011;2362;50.780;0.292;2023-03-15T06:11:55;7.65;;;2.75;;
4696;SDS011;2362;50.780;0.292;2023-03-15T06:14:23;10.73;;;2.60;;
4696;SDS011;2362;50.780;0.292;2023-03-15T06:16:49;9.50;;;2.78;;
4696;SDS011;2362;50.780;0.292;2023-03-15T06:19:15;11.73;;;2.58;;
4696;SDS011;2362;50.780;0.292;2023-03-15T06:21:40;14.32;;;2.50;;
4696;SDS011;2362;50.780;0.292;2023-03-15T06:24:06;11.60;;;2.95;;
4696;SDS011;2362;50.780;0.292;2023-03-15T06:26:32;7.72;;;2.95;;
4696;SDS011;2362;50.780;0.292;2023-03-15T06:28:57;12.75;;;2.38;;
4696;SDS011;2362;50.780;0.292;2023-03-15T06:31:23;7.38;;;2.42;;
4696;SDS011;2362;50.780;0.292;2023-03-15T06:33:49;10.45;;;2.65;;
4696;SDS011;2362;50.780;0.292;2023-03-15T06:36:14;8.55;;;2.70;;
4696;SDS011;2362;50.780;0.292;2023-03-15T06:38:40;13.18;;;2.85;;
4696;SDS011;2362;50.780;0.292;2023-03-15T06:41:06;14.75;;;3.28;;
4696;SDS011;2362;50.780;0.292;2023-03-15T06:43:32;11.90;;;3.15;;
4696;SDS011;2362;50.780;0.292;2023-03-15T06:45:59;15.52;;;3.35;;
4696;SDS011;2362;50.780;0.292;2023-03-15T06:48:26;10.90;;;3.67;;
4696;SDS011;2362;50.780;0.292;2023-03-15T06:50:52;10.70;;;3.85;;
4696;SDS011;2362;50.780;0.292;2023-03-15T06:53:18;9.27;;;3.75;;
4696;SDS011;2362;50.780;0.292;2023-03-15T06:55:45;15.93;;;3.85;;
4696;SDS011;2362;50.780;0.292;2023-03-15T06:58:11;10.60;;;3.83;;
4696;SDS011;2362;50.780;0.292;2023-03-15T07:00:37;13.95;;;3.05;;
4696;SDS011;2362;50.780;0.292;2023-03-15T07:03:03;11.55;;;3.40;;
4696;SDS011;2362;50.780;0.292;2023-03-15T07:05:29;12.50;;;3.22;;
4696;SDS011;2362;50.780;0.292;2023-03-15T07:07:55;14.27;;;3.95;;
4696;SDS011;2362;50.780;0.292;2023-03-15T07:10:21;10.68;;;4.32;;
4696;SDS011;2362;50.780;0.292;2023-03-15T07:12:47;20.60;;;5.35;;
4696;SDS011;2362;50.780;0.292;2023-03-15T07:15:12;11.45;;;5.10;;
4696;SDS011;2362;50.780;0.292;2023-03-15T07:17:38;15.07;;;5.18;;
4696;SDS011;2362;50.780;0.292;2023-03-15T07:20:04;11.57;;;4.63;;
4696;SDS011;2362;50.780;0.292;2023-03-15T07:22:32;11.57;;;4.10;;
4696;SDS011;2362;50.780;0.292;2023-03-15T07:24:57;12.68;;;4.28;;
4696;SDS011;2362;50.780;0.292;2023-03-15T07:27:23;16.00;;;4.20;;
4696;SDS011;2362;50.780;0.292;2023-03-15T07:29:50;11.25;;;3.92;;
4696;SDS011;2362;50.780;0.292;2023-03-15T07:32:15;15.38;;;4.75;;
4696;SDS011;2362;50.780;0.292;2023-03-15T07:34:41;14.27;;;3.63;;
4696;SDS011;2362;50.780;0.292;2023-03-15T07:37:07;10.18;;;3.50;;
4696;SDS011;2362;50.780;0.292;2023-03-15T07:39:33;10.77;;;3.28;;
4696;SDS011;2362;50.780;0.292;2023-03-15T07:41:58;10.55;;;3.10;;
4696;SDS011;2362;50.780;0.292;2023-03-15T07:44:24;10.10;;;2.65;;
4696;SDS011;2362;50.780;0.292;2023-03-15T07:46:50;11.60;;;3.03;;
4696;SDS011;2362;50.780;0.292;2023-03-15T07:49:16;7.07;;;2.60;;
4696;SDS011;2362;50.780;0.292;2023-03-15T07:51:42;10.98;;;2.58;;
4696;SDS011;2362;50.780;0.292;2023-03-15T07:54:08;6.45;;;2.75;;
4696;SDS011;2362;50.780;0.292;2023-03-15T07:56:34;9.23;;;2.85;;
4696;SDS011;2362;50.780;0.292;2023-03-15T07:59:00;19.15;;;3.50;;
4696;SDS011;2362;50.780;0.292;2023-03-15T08:01:25;14.50;;;2.97;;
4696;SDS011;2362;50.780;0.292;2023-03-15T08:03:51;15.18;;;3.33;;
4696;SDS011;2362;50.780;0.292;2023-03-15T08:06:17;8.93;;;2.53;;
4696;SDS011;2362;50.780;0.292;2023-03-15T08:08:42;11.85;;;2.95;;
4696;SDS011;2362;50.780;0.292;2023-03-15T08:11:08;19.08;;;2.72;;
4696;SDS011;2362;50.780;0.292;2023-03-15T08:13:34;8.13;;;2.33;;
4696;SDS011;2362;50.780;0.292;2023-03-15T08:16:00;20.08;;;2.80;;
4696;SDS011;2362;50.780;0.292;2023-03-15T08:18:25;12.18;;;2.65;;
4696;SDS011;2362;50.780;0.292;2023-03-15T08:20:54;8.40;;;2.83;;
4696;SDS011;2362;50.780;0.292;2023-03-15T08:23:20;14.45;;;3.05;;
4696;SDS011;2362;50.780;0.292;2023-03-15T08:25:46;5.30;;;2.20;;
4696;SDS011;2362;50.780;0.292;2023-03-15T08:28:12;8.68;;;2.90;;
4696;SDS011;2362;50.780;0.292;2023-03-15T08:30:37;8.20;;;2.47;;
4696;SDS011;2362;50.780;0.292;2023-03-15T08:33:03;10.13;;;2.58;;
4696;SDS011;2362;50.780;0.292;2023-03-15T08:35:29;6.60;;;2.63;;
4696;SDS011;2362;50.780;0.292;2023-03-15T08:37:56;10.05;;;2.90;;
4696;SDS011;2362;50.780;0.292;2023-03-15T08:40:23;13.70;;;2.85;;
4696;SDS011;2362;50.780;0.292;2023-03-15T08:42:49;11.23;;;2.67;;
4696;SDS011;2362;50.780;0.292;2023-03-15T08:45:15;17.52;;;3.10;;
4696;SDS011;2362;50.780;0.292;2023-03-15T08:47:41;15.27;;;2.47;;
4696;SDS011;2362;50.780;0.292;2023-03-15T08:50:09;9.05;;;2.15;;
4696;SDS011;2362;50.780;0.292;2023-03-15T08:52:37;10.25;;;2.45;;
4696;SDS011;2362;50.780;0.292;2023-03-15T08:55:28;7.72;;;2.33;;
4696;SDS011;2362;50.780;0.292;2023-03-15T08:57:54;12.13;;;2.80;;
4696;SDS011;2362;50.780;0.292;2023-03-15T09:00:20;10.95;;;2.22;;
4696;SDS011;2362;50.780;0.292;2023-03-15T09:02:50;7.28;;;2.00;;
4696;SDS011;2362;50.780;0.292;2023-03-15T09:05:19;8.48;;;2.90;;
4696;SDS011;2362;50.780;0.292;2023-03-15T09:07:47;11.98;;;2.88;;
4696;SDS011;2362;50.780;0.292;2023-03-15T09:10:13;15.98;;;2.95;;
4696;SDS011;2362;50.780;0.292;2023-03-15T09:12:44;9.25;;;2.58;;
4696;SDS011;2362;50.780;0.292;2023-03-15T09:15:12;7.53;;;2.38;;
4696;SDS011;2362;50.780;0.292;2023-03-15T09:17:39;8.10;;;2.28;;
4696;SDS011;2362;50.780;0.292;2023-03-15T09:20:06;10.27;;;2.83;;
4696;SDS011;2362;50.780;0.292;2023-03-15T09:22:39;9.43;;;2.60;;
4696;SDS011;2362;50.780;0.292;2023-03-15T09:25:06;13.68;;;2.92;;
4696;SDS011;2362;50.780;0.292;2023-03-15T09:27:32;20.30;;;3.42;;
4696;SDS011;2362;50.780;0.292;2023-03-15T09:29:58;19.77;;;3.95;;
4696;SDS011;2362;50.780;0.292;2023-03-15T09:32:24;10.75;;;2.80;;
4696;SDS011;2362;50.780;0.292;2023-03-15T09:34:50;10.38;;;2.83;;
4696;SDS011;2362;50.780;0.292;2023-03-15T09:37:16;10.25;;;2.42;;
4696;SDS011;2362;50.780;0.292;2023-03-15T09:39:42;14.43;;;2.70;;
4696;SDS011;2362;50.780;0.292;2023-03-15T09:42:18;13.48;;;2.42;;
4696;SDS011;2362;50.780;0.292;2023-03-15T09:44:50;7.18;;;1.55;;
4696;SDS011;2362;50.780;0.292;2023-03-15T09:47:43;6.80;;;1.85;;
4696;SDS011;2362;50.780;0.292;2023-03-15T09:50:18;11.25;;;2.33;;
4696;SDS011;2362;50.780;0.292;2023-03-15T09:53:01;5.03;;;1.67;;
4696;SDS011;2362;50.780;0.292;2023-03-15T09:55:30;9.77;;;1.30;;
4696;SDS011;2362;50.780;0.292;2023-03-15T09:58:00;5.72;;;1.38;;
4696;SDS011;2362;50.780;0.292;2023-03-15T10:00:46;8.55;;;1.73;;
4696;SDS011;2362;50.780;0.292;2023-03-15T10:03:17;9.48;;;1.80;;
4696;SDS011;2362;50.780;0.292;2023-03-15T10:05:53;4.93;;;1.08;;
4696;SDS011;2362;50.780;0.292;2023-03-15T10:08:23;13.40;;;2.10;;
4696;SDS011;2362;50.780;0.292;2023-03-15T10:13:24;2.35;;;1.25;;
4696;SDS011;2362;50.780;0.292;2023-03-15T10:21:04;6.45;;;1.15;;
4696;SDS011;2362;50.780;0.292;2023-03-15T10:26:37;3.17;;;0.88;;
4696;SDS011;2362;50.780;0.292;2023-03-15T10:29:08;9.77;;;1.30;;
4696;SDS011;2362;50.780;0.292;2023-03-15T10:31:39;11.00;;;1.35;;
4696;SDS011;2362;50.780;0.292;2023-03-15T10:34:08;9.13;;;1.73;;
4696;SDS011;2362;50.780;0.292;2023-03-15T10:36:35;6.65;;;1.55;;
4696;SDS011;2362;50.780;0.292;2023-03-15T10:39:01;15.95;;;1.85;;
4696;SDS011;2362;50.780;0.292;2023-03-15T10:41:48;18.75;;;1.42;;
4696;SDS011;2362;50.780;0.292;2023-03-15T10:44:15;6.43;;;1.07;;
4696;SDS011;2362;50.780;0.292;2023-03-15T10:47:01;9.43;;;1.20;;
4696;SDS011;2362;50.780;0.292;2023-03-15T10:49:37;5.78;;;1.25;;
4696;SDS011;2362;50.780;0.292;2023-03-15T10:52:05;10.30;;;1.35;;
4696;SDS011;2362;50.780;0.292;2023-03-15T10:54:48;10.40;;;1.00;;
4696;SDS011;2362;50.780;0.292;2023-03-15T10:57:15;7.43;;;0.90;;
4696;SDS011;2362;50.780;0.292;2023-03-15T10:59:58;5.07;;;1.00;;
4696;SDS011;2362;50.780;0.292;2023-03-15T11:02:47;4.07;;;1.15;;
4696;SDS011;2362;50.780;0.292;2023-03-15T11:05:15;13.75;;;1.95;;
4696;SDS011;2362;50.780;0.292;2023-03-15T11:07:56;9.88;;;0.98;;
4696;SDS011;2362;50.780;0.292;2023-03-15T11:10:24;7.45;;;1.05;;
4696;SDS011;2362;50.780;0.292;2023-03-15T11:13:38;7.82;;;0.82;;
4696;SDS011;2362;50.780;0.292;2023-03-15T11:18:43;8.15;;;1.20;;
4696;SDS011;2362;50.780;0.292;2023-03-15T11:21:14;4.05;;;1.23;;
4696;SDS011;2362;50.780;0.292;2023-03-15T11:23:42;13.93;;;1.35;;
4696;SDS011;2362;50.780;0.292;2023-03-15T11:26:23;3.30;;;0.93;;
4696;SDS011;2362;50.780;0.292;2023-03-15T11:28:50;5.32;;;1.35;;
4696;SDS011;2362;50.780;0.292;2023-03-15T11:31:20;11.45;;;1.23;;
4696;SDS011;2362;50.780;0.292;2023-03-15T11:33:52;9.10;;;1.35;;
4696;SDS011;2362;50.780;0.292;2023-03-15T11:36:21;4.80;;;1.13;;
4696;SDS011;2362;50.780;0.292;2023-03-15T11:38:48;9.98;;;1.85;;
4696;SDS011;2362;50.780;0.292;2023-03-15T11:46:32;6.22;;;1.67;;
4696;SDS011;2362;50.780;0.292;2023-03-15T11:49:28;10.32;;;1.00;;
4696;SDS011;2362;50.780;0.292;2023-03-15T11:51:59;8.80;;;1.00;;
4696;SDS011;2362;50.780;0.292;2023-03-15T11:54:27;5.55;;;0.93;;
4696;SDS011;2362;50.780;0.292;2023-03-15T11:56:55;6.78;;;0.90;;
4696;SDS011;2362;50.780;0.292;2023-03-15T11:59:38;5.95;;;0.68;;
4696;SDS011;2362;50.780;0.292;2023-03-15T12:04:40;7.90;;;0.75;;
4696;SDS011;2362;50.780;0.292;2023-03-15T12:20:10;10.60;;;1.10;;
4696;SDS011;2362;50.780;0.292;2023-03-15T12:25:17;5.95;;;0.85;;
4696;SDS011;2362;50.780;0.292;2023-03-15T12:27:51;4.80;;;1.00;;
4696;SDS011;2362;50.780;0.292;2023-03-15T12:32:46;8.98;;;1.23;;
4696;SDS011;2362;50.780;0.292;2023-03-15T12:35:16;8.38;;;1.30;;
4696;SDS011;2362;50.780;0.292;2023-03-15T12:37:45;6.28;;;1.00;;
4696;SDS011;2362;50.780;0.292;2023-03-15T12:53:13;5.40;;;0.93;;
4696;SDS011;2362;50.780;0.292;2023-03-15T12:55:52;7.25;;;0.90;;
4696;SDS011;2362;50.780;0.292;2023-03-15T12:58:20;11.43;;;1.13;;
4696;SDS011;2362;50.780;0.292;2023-03-15T13:00:51;12.93;;;2.40;;
4696;SDS011;2362;50.780;0.292;2023-03-15T13:03:19;7.72;;;1.00;;
4696;SDS011;2362;50.780;0.292;2023-03-15T13:08:53;13.10;;;1.05;;
4696;SDS011;2362;50.780;0.292;2023-03-15T13:11:22;7.05;;;0.88;;
4696;SDS011;2362;50.780;0.292;2023-03-15T13:17:04;13.00;;;1.58;;
4696;SDS011;2362;50.780;0.292;2023-03-15T13:26:02;10.55;;;1.27;;
4696;SDS011;2362;50.780;0.292;2023-03-15T13:28:39;4.78;;;1.52;;
4696;SDS011;2362;50.780;0.292;2023-03-15T13:31:25;10.18;;;1.20;;
4696;SDS011;2362;50.780;0.292;2023-03-15T13:33:54;10.18;;;1.23;;
4696;SDS011;2362;50.780;0.292;2023-03-15T13:36:23;5.65;;;1.02;;
4696;SDS011;2362;50.780;0.292;2023-03-15T13:39:08;10.77;;;1.58;;
4696;SDS011;2362;50.780;0.292;2023-03-15T13:41:41;19.92;;;1.65;;
4696;SDS011;2362;50.780;0.292;2023-03-15T13:44:20;7.68;;;1.98;;
4696;SDS011;2362;50.780;0.292;2023-03-15T13:46:48;9.88;;;1.42;;
4696;SDS011;2362;50.780;0.292;2023-03-15T13:49:15;7.90;;;1.80;;
4696;SDS011;2362;50.780;0.292;2023-03-15T13:51:41;6.90;;;1.15;;
4696;SDS011;2362;50.780;0.292;2023-03-15T13:54:24;8.55;;;1.55;;
4696;SDS011;2362;50.780;0.292;2023-03-15T14:01:56;7.80;;;1.65;;
4696;SDS011;2362;50.780;0.292;2023-03-15T14:04:23;6.15;;;1.50;;
4696;SDS011;2362;50.780;0.292;2023-03-15T14:06:50;12.63;;;1.60;;
4696;SDS011;2362;50.780;0.292;2023-03-15T14:09:31;25.23;;;1.88;;
4696;SDS011;2362;50.780;0.292;2023-03-15T14:12:01;15.77;;;2.10;;
4696;SDS011;2362;50.780;0.292;2023-03-15T14:14:33;15.45;;;1.92;;
4696;SDS011;2362;50.780;0.292;2023-03-15T14:17:05;5.97;;;1.02;;
4696;SDS011;2362;50.780;0.292;2023-03-15T14:19:50;11.27;;;0.88;;
4696;SDS011;2362;50.780;0.292;2023-03-15T14:22:20;8.32;;;1.38;;
4696;SDS011;2362;50.780;0.292;2023-03-15T14:24:48;5.85;;;1.20;;
4696;SDS011;2362;50.780;0.292;2023-03-15T14:27:17;8.55;;;1.02;;
4696;SDS011;2362;50.780;0.292;2023-03-15T14:29:48;10.02;;;1.30;;
4696;SDS011;2362;50.780;0.292;2023-03-15T14:32:28;8.93;;;1.65;;
4696;SDS011;2362;50.780;0.292;2023-03-15T14:37:59;11.73;;;1.65;;
4696;SDS011;2362;50.780;0.292;2023-03-15T14:43:00;9.85;;;1.98;;
4696;SDS011;2362;50.780;0.292;2023-03-15T14:45:26;15.55;;;0.98;;
4696;SDS011;2362;50.780;0.292;2023-03-15T14:47:56;5.13;;;1.20;;
4696;SDS011;2362;50.780;0.292;2023-03-15T14:50:31;13.80;;;1.13;;
4696;SDS011;2362;50.780;0.292;2023-03-15T14:53:01;8.43;;;1.13;;
4696;SDS011;2362;50.780;0.292;2023-03-15T14:55:32;8.05;;;1.58;;
4696;SDS011;2362;50.780;0.292;2023-03-15T14:58:11;18.30;;;1.95;;
4696;SDS011;2362;50.780;0.292;2023-03-15T15:00:39;8.45;;;1.98;;
4696;SDS011;2362;50.780;0.292;2023-03-15T15:03:13;18.25;;;3.50;;
4696;SDS011;2362;50.780;0.292;2023-03-15T15:05:46;7.63;;;1.40;;
4696;SDS011;2362;50.780;0.292;2023-03-15T15:08:17;8.93;;;1.00;;
4696;SDS011;2362;50.780;0.292;2023-03-15T15:10:46;16.88;;;2.08;;
4696;SDS011;2362;50.780;0.292;2023-03-15T15:13:21;13.48;;;1.95;;
4696;SDS011;2362;50.780;0.292;2023-03-15T15:15:47;7.40;;;1.20;;
4696;SDS011;2362;50.780;0.292;2023-03-15T15:18:12;18.70;;;1.85;;
4696;SDS011;2362;50.780;0.292;2023-03-15T15:20:38;10.07;;;1.08;;
4696;SDS011;2362;50.780;0.292;2023-03-15T15:23:10;19.88;;;1.63;;
4696;SDS011;2362;50.780;0.292;2023-03-15T15:26:01;15.23;;;2.60;;
4696;SDS011;2362;50.780;0.292;2023-03-15T15:28:29;12.35;;;1.98;;
4696;SDS011;2362;50.780;0.292;2023-03-15T15:30:56;10.75;;;1.85;;
4696;SDS011;2362;50.780;0.292;2023-03-15T15:33:21;9.90;;;1.33;;
4696;SDS011;2362;50.780;0.292;2023-03-15T15:35:56;12.23;;;1.67;;
4696;SDS011;2362;50.780;0.292;2023-03-15T15:38:22;14.25;;;1.60;;
4696;SDS011;2362;50.780;0.292;2023-03-15T15:40:51;14.27;;;2.22;;
4696;SDS011;2362;50.780;0.292;2023-03-15T15:43:17;9.02;;;1.83;;
4696;SDS011;2362;50.780;0.292;2023-03-15T15:45:43;18.88;;;1.98;;
4696;SDS011;2362;50.780;0.292;2023-03-15T15:48:08;17.83;;;2.05;;
4696;SDS011;2362;50.780;0.292;2023-03-15T15:50:35;14.40;;;1.80;;
4696;SDS011;2362;50.780;0.292;2023-03-15T15:53:02;17.48;;;2.58;;
4696;SDS011;2362;50.780;0.292;2023-03-15T15:55:55;12.88;;;1.83;;
4696;SDS011;2362;50.780;0.292;2023-03-15T15:58:21;17.10;;;1.95;;
4696;SDS011;2362;50.780;0.292;2023-03-15T16:00:47;20.77;;;1.80;;
4696;SDS011;2362;50.780;0.292;2023-03-15T16:03:12;22.60;;;1.98;;
4696;SDS011;2362;50.780;0.292;2023-03-15T16:05:41;16.38;;;2.40;;
4696;SDS011;2362;50.780;0.292;2023-03-15T16:08:25;25.02;;;2.03;;
4696;SDS011;2362;50.780;0.292;2023-03-15T16:11:01;18.65;;;2.30;;
4696;SDS011;2362;50.780;0.292;2023-03-15T16:13:27;16.58;;;3.08;;
4696;SDS011;2362;50.780;0.292;2023-03-15T16:15:53;15.63;;;2.50;;
4696;SDS011;2362;50.780;0.292;2023-03-15T16:18:19;18.13;;;2.42;;
4696;SDS011;2362;50.780;0.292;2023-03-15T16:20:44;24.42;;;3.13;;
4696;SDS011;2362;50.780;0.292;2023-03-15T16:23:20;24.38;;;2.92;;
4696;SDS011;2362;50.780;0.292;2023-03-15T16:25:49;28.70;;;2.60;;
4696;SDS011;2362;50.780;0.292;2023-03-15T16:28:19;18.83;;;2.65;;
4696;SDS011;2362;50.780;0.292;2023-03-15T16:30:45;22.67;;;2.38;;
4696;SDS011;2362;50.780;0.292;2023-03-15T16:33:15;34.53;;;3.00;;
4696;SDS011;2362;50.780;0.292;2023-03-15T16:35:42;28.17;;;3.45;;
4696;SDS011;2362;50.780;0.292;2023-03-15T16:38:13;16.88;;;2.80;;
4696;SDS011;2362;50.780;0.292;2023-03-15T16:40:41;24.30;;;4.35;;
4696;SDS011;2362;50.780;0.292;2023-03-15T16:43:12;29.98;;;3.47;;
4696;SDS011;2362;50.780;0.292;2023-03-15T16:45:38;34.60;;;4.07;;